Time;durP1;ratioP1;P1;durP2;ratioP2;P2;SDS_P1;SDS_P2;PMS_P1;PMS_P2;Temp;Humidity;BMP_temperature;BMP_pressure;BME280_temperature;BME280_humidity;BME280_pressure;Samples;Min_cycle;Max_cycle;Signal;HPM_P1;HPM_P2
2022/06/19 00:01:37;;;;;;;6.40;2.33;;;;;;;24.37;72.59;99420.41;5034012;28;20041;-64
2022/06/19 00:04:04;;;;;;;13.95;2.80;;;;;;;24.31;71.82;99416.47;5033968;28;20033;-63
2022/06/19 00:06:29;;;;;;;17.40;3.15;;;;;;;24.23;71.29;99410.06;5033736;28;20092;-64
2022/06/19 00:08:55;;;;;;;8.45;3.70;;;;;;;24.19;71.11;99395.03;5033818;28;20116;-64
2022/06/19 00:11:22;;;;;;;8.43;2.83;;;;;;;24.16;72.01;99387.19;5032949;28;20336;-64
2022/06/19 00:13:47;;;;;;;11.90;3.08;;;;;;;24.07;72.36;99378.06;5032039;28;20033;-64
2022/06/19 00:16:13;;;;;;;8.73;2.90;;;;;;;23.99;72.17;99375.25;5035449;28;20060;-64
2022/06/19 00:18:39;;;;;;;11.88;3.25;;;;;;;23.90;73.48;99375.28;5051647;28;20431;-64
2022/06/19 00:21:05;;;;;;;14.07;2.80;;;;;;;23.96;73.68;99380.09;5051622;28;20108;-64
2022/06/19 00:23:31;;;;;;;9.13;2.92;;;;;;;23.93;72.84;99377.69;5049897;28;20059;-64
2022/06/19 00:25:57;;;;;;;11.25;2.72;;;;;;;23.87;72.51;99373.69;5032112;28;20022;-64
2022/06/19 00:28:23;;;;;;;7.00;2.72;;;;;;;23.74;71.97;99359.59;5070381;28;20033;-64
2022/06/19 00:30:49;;;;;;;12.02;3.45;;;;;;;23.77;73.19;99361.16;5073357;28;20484;-64
2022/06/19 00:33:14;;;;;;;11.05;2.70;;;;;;;23.77;74.03;99359.31;5073098;28;20029;-64
2022/06/19 00:35:39;;;;;;;13.25;3.28;;;;;;;23.74;73.94;99353.31;5073266;28;20060;-64
2022/06/19 00:38:05;;;;;;;10.80;3.08;;;;;;;23.69;74.56;99350.19;5073157;28;20030;-64
2022/06/19 00:40:32;;;;;;;9.20;3.35;;;;;;;23.66;73.79;99362.19;5073208;28;20492;-64
2022/06/19 00:42:57;;;;;;;9.95;2.72;;;;;;;23.58;74.15;99361.22;5073200;28;20055;-64
2022/06/19 00:45:33;;;;;;;7.15;2.83;;;;;;;23.53;75.05;99360.81;5073129;28;20024;-64
2022/06/19 00:48:02;;;;;;;12.45;2.83;;;;;;;23.42;76.11;99360.00;5044832;28;20465;-64
2022/06/19 00:50:32;;;;;;;10.40;2.90;;;;;;;23.38;76.46;99365.84;5033027;28;20053;-64
2022/06/19 00:52:58;;;;;;;11.27;4.38;;;;;;;23.19;78.69;99347.72;5033082;28;20104;-64
2022/06/19 00:55:31;;;;;;;8.32;3.05;;;;;;;23.15;79.20;99357.16;5032643;28;20051;-64
2022/06/19 00:58:02;;;;;;;10.73;3.20;;;;;;;23.06;80.53;99354.44;5032998;28;20489;-64
2022/06/19 01:00:29;;;;;;;7.32;2.38;;;;;;;23.02;80.28;99351.16;5033413;28;20027;-64
2022/06/19 01:02:58;;;;;;;9.32;3.00;;;;;;;23.01;81.20;99354.91;5032808;28;20079;-64
2022/06/19 01:05:26;;;;;;;6.88;2.50;;;;;;;22.92;81.62;99347.59;5032777;28;20388;-64
2022/06/19 01:07:51;;;;;;;14.60;3.10;;;;;;;22.98;81.66;99360.56;5032385;28;20048;-64
2022/06/19 01:10:17;;;;;;;9.60;3.97;;;;;;;22.98;81.15;99355.16;5032632;28;20061;-64
2022/06/19 01:12:46;;;;;;;11.18;2.78;;;;;;;23.06;79.45;99368.84;5032320;28;20053;-63
2022/06/19 01:15:15;;;;;;;9.65;3.28;;;;;;;23.18;79.63;99372.28;5032612;28;20139;-64
2022/06/19 01:17:40;;;;;;;10.57;2.92;;;;;;;23.22;78.81;99365.56;5032400;28;20052;-64
2022/06/19 01:20:11;;;;;;;15.25;2.58;;;;;;;23.29;76.07;99370.28;5032500;28;20025;-64
2022/06/19 01:22:54;;;;;;;7.82;2.15;;;;;;;23.39;73.63;99362.97;5032498;28;20436;-64
2022/06/19 01:25:22;;;;;;;;;;;;;;;23.50;74.53;99374.69;5032728;28;20029;-64
2022/06/19 01:30:38;;;;;;;5.55;2.03;;;;;;;23.52;73.77;99367.25;5072177;28;20067;-63
2022/06/19 01:33:09;;;;;;;10.35;3.17;;;;;;;23.49;75.38;99375.69;5071952;28;20099;-63
2022/06/19 01:35:36;;;;;;;6.22;2.42;;;;;;;23.46;75.53;99376.00;5072061;28;20395;-64
2022/06/19 01:38:10;;;;;;;6.68;2.30;;;;;;;23.41;75.16;99362.84;5071818;28;20039;-63
2022/06/19 01:40:36;;;;;;;7.07;2.33;;;;;;;23.36;74.10;99363.28;5060854;28;20040;-63
2022/06/19 01:43:03;;;;;;;9.95;2.97;;;;;;;23.34;74.59;99361.72;5031405;28;20056;-64
2022/06/19 01:45:32;;;;;;;8.35;2.60;;;;;;;23.26;75.27;99358.84;5031341;28;20033;-64
2022/06/19 01:47:58;;;;;;;10.43;2.60;;;;;;;23.21;75.52;99361.97;5029879;28;20425;-64
2022/06/19 01:50:27;;;;;;;12.63;2.35;;;;;;;22.96;74.56;99330.06;5033903;28;20445;-64
2022/06/19 01:53:00;;;;;;;6.85;2.25;;;;;;;23.14;75.34;99360.88;5031124;28;20442;-64
2022/06/19 01:55:28;;;;;;;8.40;3.08;;;;;;;23.14;75.44;99366.31;5031689;28;20029;-64
2022/06/19 01:57:56;;;;;;;8.73;2.70;;;;;;;23.05;74.74;99356.31;5031397;28;20040;-64
2022/06/19 02:00:25;;;;;;;7.03;2.47;;;;;;;23.01;75.58;99357.59;5031847;28;20472;-64
2022/06/19 02:03:04;;;;;;;11.65;2.85;;;;;;;22.98;76.51;99359.75;5031664;28;20036;-64
2022/06/19 02:05:31;;;;;;;5.80;2.40;;;;;;;22.91;77.09;99362.19;5030043;28;20028;-64
2022/06/19 02:07:57;;;;;;;9.93;2.80;;;;;;;22.92;77.02;99355.75;5029610;28;20039;-64
2022/06/19 02:10:23;;;;;;;8.02;2.20;;;;;;;22.89;76.91;99364.16;5029414;28;20029;-64
2022/06/19 02:12:49;;;;;;;5.30;2.35;;;;;;;22.87;77.70;99362.59;5038747;28;20052;-64
2022/06/19 02:15:14;;;;;;;9.70;2.45;;;;;;;22.74;77.41;99362.00;5049658;28;20024;-64
2022/06/19 02:17:49;;;;;;;8.70;2.72;;;;;;;22.61;77.56;99356.88;5049443;28;20345;-64
2022/06/19 02:20:16;;;;;;;9.65;2.80;;;;;;;22.46;78.47;99347.41;5050724;28;20440;-64
2022/06/19 02:22:42;;;;;;;14.45;3.25;;;;;;;22.39;79.09;99342.72;5051122;28;20040;-64
2022/06/19 02:25:10;;;;;;;9.65;3.08;;;;;;;22.34;79.61;99340.38;5036316;28;20465;-64
2022/06/19 02:27:37;;;;;;;6.85;2.60;;;;;;;22.32;80.89;99339.69;5054127;28;20036;-64
2022/06/19 02:30:05;;;;;;;8.77;2.95;;;;;;;22.25;81.43;99333.13;5051225;28;20037;-64
2022/06/19 02:32:38;;;;;;;12.02;2.90;;;;;;;22.17;81.86;99325.66;5038838;28;20358;-64
2022/06/19 02:35:04;;;;;;;8.23;2.92;;;;;;;22.24;81.44;99334.09;5051024;28;20052;-64
2022/06/19 02:37:40;;;;;;;9.40;2.65;;;;;;;22.31;80.98;99332.53;5050722;28;20060;-64
2022/06/19 02:40:26;;;;;;;5.57;2.60;;;;;;;22.32;81.30;99331.56;5051054;28;20039;-64
2022/06/19 02:42:51;;;;;;;13.05;3.20;;;;;;;22.33;81.21;99330.56;5047760;28;20045;-64
2022/06/19 02:45:20;;;;;;;11.98;2.22;;;;;;;22.34;81.31;99324.13;5048811;28;20047;-64
2022/06/19 02:47:47;;;;;;;9.70;2.25;;;;;;;22.30;81.21;99330.84;5050760;28;20017;-64
2022/06/19 02:50:17;;;;;;;11.50;2.80;;;;;;;22.17;81.73;99316.72;5050770;28;20032;-64
2022/06/19 02:52:42;;;;;;;12.20;3.60;;;;;;;22.16;82.19;99329.38;5050164;28;20047;-64
2022/06/19 02:55:09;;;;;;;7.05;2.55;;;;;;;22.05;81.93;99320.50;5035475;28;20029;-64
2022/06/19 02:57:35;;;;;;;10.52;2.83;;;;;;;21.95;82.05;99325.03;5031023;28;20030;-64
2022/06/19 03:00:02;;;;;;;9.65;2.78;;;;;;;21.84;82.38;99319.75;5031280;28;20029;-64
2022/06/19 03:02:28;;;;;;;14.00;2.80;;;;;;;21.81;83.00;99322.75;5030685;28;20033;-64
2022/06/19 03:04:57;;;;;;;10.55;2.90;;;;;;;21.80;83.29;99329.13;5030736;28;20032;-64
2022/06/19 03:07:23;;;;;;;10.57;2.72;;;;;;;21.82;84.20;99332.56;5030955;28;20141;-64
2022/06/19 03:09:49;;;;;;;6.97;2.50;;;;;;;21.78;83.95;99321.13;5031096;28;20041;-64
2022/06/19 03:12:18;;;;;;;6.82;2.50;;;;;;;21.83;84.28;99323.44;5030645;28;20077;-64
2022/06/19 03:14:44;;;;;;;11.73;2.63;;;;;;;21.74;84.55;99326.94;5030950;28;20033;-64
2022/06/19 03:17:18;;;;;;;10.57;2.50;;;;;;;21.71;85.40;99324.50;5029393;28;20037;-64
2022/06/19 03:19:44;;;;;;;8.43;2.97;;;;;;;21.68;86.47;99322.09;5028083;28;20033;-64
2022/06/19 03:22:10;;;;;;;11.82;3.17;;;;;;;21.68;86.35;99328.34;5028153;28;20028;-64
2022/06/19 03:24:37;;;;;;;10.93;3.30;;;;;;;21.71;85.83;99321.81;5027943;28;20064;-64
2022/06/19 03:27:03;;;;;;;7.38;2.72;;;;;;;21.72;85.40;99315.38;5042088;28;20108;-64
2022/06/19 03:29:29;;;;;;;7.35;2.63;;;;;;;21.74;85.35;99303.44;5066243;28;20199;-64
2022/06/19 03:31:54;;;;;;;11.82;3.10;;;;;;;21.77;85.12;99307.75;5067101;28;20024;-64
2022/06/19 03:34:19;;;;;;;8.52;2.72;;;;;;;21.73;84.84;99304.41;5068922;28;20547;-64
2022/06/19 03:36:45;;;;;;;6.82;2.38;;;;;;;21.77;85.68;99305.91;5068919;28;20036;-64
2022/06/19 03:39:11;;;;;;;15.57;2.75;;;;;;;21.79;85.56;99305.75;5068910;28;20039;-65
2022/06/19 03:41:37;;;;;;;14.55;2.90;;;;;;;21.74;85.26;99297.16;5069180;28;20085;-64
2022/06/19 03:44:04;;;;;;;6.55;2.55;;;;;;;21.82;85.33;99302.78;5070052;28;20029;-64
2022/06/19 03:46:29;;;;;;;11.45;2.70;;;;;;;21.82;85.48;99314.47;5070363;28;20117;-64
2022/06/19 03:48:54;;;;;;;5.70;2.38;;;;;;;;;;5033791;28;20460;-64
2022/06/19 03:51:23;;;;;;;10.18;2.70;;;;;;;21.88;85.50;99313.03;5033395;28;20044;-64
2022/06/19 03:53:53;;;;;;;9.68;2.60;;;;;;;21.90;84.05;99316.47;5029265;28;20060;-64
2022/06/19 03:56:31;;;;;;;15.63;3.58;;;;;;;21.87;82.99;99317.63;5028385;28;20021;-64
2022/06/19 03:58:58;;;;;;;9.43;2.70;;;;;;;21.85;82.63;99319.59;5028397;28;20042;-64
2022/06/19 04:01:33;;;;;;;6.35;2.20;;;;;;;21.88;82.43;99318.47;5028719;28;20112;-64
2022/06/19 04:03:59;;;;;;;9.50;2.92;;;;;;;21.95;82.49;99308.81;5030356;28;20029;-64
2022/06/19 04:06:31;;;;;;;11.02;3.00;;;;;;;22.06;82.32;99322.22;5032408;28;20040;-64
2022/06/19 04:08:57;;;;;;;9.13;2.83;;;;;;;22.12;81.43;99311.69;5032765;28;20418;-64
2022/06/19 04:11:27;;;;;;;10.05;2.47;;;;;;;22.31;80.77;99320.84;5033524;28;20046;-64
2022/06/19 04:13:53;;;;;;;11.90;2.30;;;;;;;22.45;79.37;99324.03;5033900;28;20033;-63
2022/06/19 04:16:25;;;;;;;8.93;3.17;;;;;;;22.62;77.26;99317.06;5033530;28;20385;-63
2022/06/19 04:18:52;;;;;;;14.13;3.65;;;;;;;22.77;76.47;99324.63;5036944;28;20362;-63
2022/06/19 04:21:20;;;;;;;10.05;3.03;;;;;;;22.91;73.29;99329.63;5053410;28;20115;-64
2022/06/19 04:23:46;;;;;;;11.45;3.45;;;;;;;23.08;71.47;99323.44;5049328;28;20096;-64
2022/06/19 04:26:15;;;;;;;12.25;2.67;;;;;;;23.27;68.77;99322.59;5050220;28;20053;-63
2022/06/19 04:28:41;;;;;;;10.48;2.65;;;;;;;23.40;67.18;99323.13;5073515;28;20103;-64
2022/06/19 04:31:06;;;;;;;8.38;2.70;;;;;;;23.55;66.75;99327.09;5073238;28;20111;-63
2022/06/19 04:33:38;;;;;;;17.95;3.40;;;;;;;23.67;64.05;99331.34;5073342;28;20040;-63
2022/06/19 04:36:09;;;;;;;9.52;2.13;;;;;;;23.86;62.79;99325.81;5060778;28;20029;-63
2022/06/19 04:38:36;;;;;;;10.93;2.97;;;;;;;24.01;62.18;99329.78;5053563;28;20540;-64
2022/06/19 04:41:01;;;;;;;10.20;2.90;;;;;;;24.13;61.87;99327.72;5053029;28;20028;-64
2022/06/19 04:43:27;;;;;;;10.52;2.97;;;;;;;24.27;60.20;99329.91;5041415;28;20036;-64
2022/06/19 04:46:01;;;;;;;10.88;2.28;;;;;;;24.49;59.19;99335.78;5033118;28;20029;-64
2022/06/19 04:48:27;;;;;;;10.10;2.20;;;;;;;24.68;58.83;99334.78;5032682;28;20112;-64
2022/06/19 04:50:53;;;;;;;9.50;2.63;;;;;;;24.79;58.14;99336.44;5030872;28;20124;-64
2022/06/19 04:53:19;;;;;;;10.48;2.22;;;;;;;24.86;58.05;99332.09;5031517;28;20026;-64
2022/06/19 04:55:44;;;;;;;12.20;2.33;;;;;;;24.92;57.76;99324.16;5030855;28;20116;-64
2022/06/19 04:58:10;;;;;;;12.00;2.33;;;;;;;25.03;57.03;99329.34;5031734;28;20029;-63
2022/06/19 05:00:35;;;;;;;9.13;1.77;;;;;;;25.13;58.12;99327.38;5032731;28;20026;-64
2022/06/19 05:03:01;;;;;;;10.82;2.28;;;;;;;25.20;57.17;99336.63;5032876;28;20022;-63
2022/06/19 05:05:26;;;;;;;12.23;2.33;;;;;;;25.25;56.85;99339.72;5032333;28;20021;-63
2022/06/19 05:07:51;;;;;;;13.02;2.70;;;;;;;25.31;56.94;99333.63;5032708;28;20018;-64
2022/06/19 05:10:17;;;;;;;12.45;2.80;;;;;;;25.38;57.27;99332.03;5032664;28;20052;-64
2022/06/19 05:12:42;;;;;;;11.40;2.53;;;;;;;25.42;56.24;99335.28;5032576;28;20535;-64
2022/06/19 05:15:09;;;;;;;9.90;2.30;;;;;;;25.50;56.67;99332.63;5031828;28;20080;-64
2022/06/19 05:17:35;;;;;;;15.18;2.72;;;;;;;25.57;57.81;99339.97;5032740;28;20355;-64
2022/06/19 05:20:02;;;;;;;7.00;1.80;;;;;;;25.60;56.55;99328.75;5032128;28;20105;-64
2022/06/19 05:22:28;;;;;;;16.00;3.15;;;;;;;25.76;57.39;99334.31;5032848;28;20030;-64
2022/06/19 05:24:53;;;;;;;11.60;2.20;;;;;;;25.85;56.42;99336.03;5042854;28;20078;-64
2022/06/19 05:27:19;;;;;;;11.07;2.75;;;;;;;25.96;56.55;99332.19;5050087;28;20028;-64
2022/06/19 05:29:44;;;;;;;10.90;2.92;;;;;;;26.06;55.61;99337.53;5052256;28;20036;-64
2022/06/19 05:32:10;;;;;;;10.10;2.47;;;;;;;26.20;55.08;99334.19;5052580;28;20021;-64
2022/06/19 05:34:39;;;;;;;7.18;1.98;;;;;;;26.34;55.47;99339.00;5052077;28;20033;-64
2022/06/19 05:37:05;;;;;;;8.05;1.92;;;;;;;26.46;55.05;99341.25;5052161;28;20029;-62
2022/06/19 05:39:31;;;;;;;11.20;2.78;;;;;;;26.62;53.59;99338.56;5047123;28;20052;-63
2022/06/19 05:41:57;;;;;;;8.65;2.20;;;;;;;26.77;52.76;99341.53;5032052;28;20150;-63
2022/06/19 05:44:28;;;;;;;9.77;2.53;;;;;;;26.90;53.20;99347.34;5032148;28;20096;-63
2022/06/19 05:46:54;;;;;;;9.02;2.53;;;;;;;26.95;51.48;99344.97;5034240;28;20025;-64
2022/06/19 05:49:20;;;;;;;8.30;2.17;;;;;;;27.14;52.46;99366.47;5031796;28;20048;-64
2022/06/19 05:51:46;;;;;;;10.82;4.13;;;;;;;27.32;52.16;99361.72;5031856;28;20400;-64
2022/06/19 05:54:12;;;;;;;8.93;2.40;;;;;;;27.43;53.51;99361.34;5039509;28;20040;-63
2022/06/19 05:56:38;;;;;;;9.02;2.38;;;;;;;27.54;51.30;99362.88;5051684;28;20033;-64
2022/06/19 05:59:04;;;;;;;7.68;2.75;;;;;;;27.72;51.12;99361.66;5051638;28;20060;-64
2022/06/19 06:01:30;;;;;;;13.43;3.10;;;;;;;27.87;50.40;99354.47;5051416;28;20032;-64
2022/06/19 06:03:56;;;;;;;6.63;1.70;;;;;;;28.05;50.18;99355.09;5051611;28;20039;-64
2022/06/19 06:06:25;;;;;;;14.95;3.58;;;;;;;28.21;49.74;99352.31;5051450;28;20053;-64
2022/06/19 06:08:51;;;;;;;8.48;2.38;;;;;;;28.34;49.73;99354.44;5051429;28;20503;-64
2022/06/19 06:11:18;;;;;;;10.68;2.88;;;;;;;28.42;49.17;99355.28;5050928;28;20569;-64
2022/06/19 06:13:43;;;;;;;10.05;2.20;;;;;;;28.54;50.42;99352.16;5051581;28;20062;-64
2022/06/19 06:16:11;;;;;;;11.63;3.10;;;;;;;28.66;50.05;99357.06;5051137;28;20473;-64
2022/06/19 06:18:37;;;;;;;12.75;2.35;;;;;;;28.78;48.30;99354.75;5051146;28;20028;-64
2022/06/19 06:21:05;;;;;;;9.02;2.80;;;;;;;28.93;48.31;99353.78;5051129;28;20367;-63
2022/06/19 06:23:32;;;;;;;9.48;2.80;;;;;;;29.08;47.68;99362.09;5049281;28;20388;-64
2022/06/19 06:26:04;;;;;;;9.57;2.58;;;;;;;29.19;48.48;99358.94;5030954;28;20035;-64
2022/06/19 06:28:31;;;;;;;7.95;2.28;;;;;;;29.40;48.07;99367.31;5070136;28;20028;-64
2022/06/19 06:30:57;;;;;;;12.27;2.75;;;;;;;29.58;48.64;99365.09;5071418;28;20036;-64
2022/06/19 06:33:22;;;;;;;15.88;4.20;;;;;;;29.66;46.84;99373.25;5054114;28;20476;-64
2022/06/19 06:35:48;;;;;;;8.73;2.90;;;;;;;29.83;47.45;99374.81;5051160;28;20488;-64
2022/06/19 06:38:13;;;;;;;12.27;4.95;;;;;;;30.05;47.05;99373.84;5051137;28;20378;-64
2022/06/19 06:40:39;;;;;;;9.90;2.65;;;;;;;30.20;46.37;99379.38;5041198;28;20033;-65
2022/06/19 06:43:04;;;;;;;9.65;2.75;;;;;;;30.37;46.38;99389.97;5031204;28;20363;-65
2022/06/19 06:45:30;;;;;;;7.53;2.22;;;;;;;30.42;44.83;99392.13;5030700;28;20029;-63
2022/06/19 06:47:56;;;;;;;11.63;2.72;;;;;;;30.47;44.39;99385.03;5031350;28;20032;-63
2022/06/19 06:50:22;;;;;;;9.43;2.38;;;;;;;30.51;44.41;99397.31;5031300;28;20450;-63
2022/06/19 06:52:51;;;;;;;10.63;2.53;;;;;;;30.67;45.25;99391.63;5033163;28;20064;-64
2022/06/19 06:55:16;;;;;;;14.40;3.53;;;;;;;30.92;45.28;99399.56;5047292;28;20029;-64
2022/06/19 06:57:42;;;;;;;6.75;2.75;;;;;;;31.04;46.14;99387.00;5050865;28;20357;-64
2022/06/19 07:00:12;;;;;;;8.52;2.60;;;;;;;31.16;43.85;99393.66;5050832;28;20433;-64
2022/06/19 07:02:38;;;;;;;15.10;4.60;;;;;;;31.43;43.61;99398.44;5050870;28;20029;-64
2022/06/19 07:05:03;;;;;;;10.98;3.30;;;;;;;31.43;44.17;99391.03;5050659;28;20362;-65
2022/06/19 07:07:29;;;;;;;8.70;2.83;;;;;;;31.69;44.51;99393.16;5050614;28;20056;-65
2022/06/19 07:09:54;;;;;;;6.25;3.00;;;;;;;31.83;45.00;99393.03;5050859;28;20021;-64
2022/06/19 07:12:20;;;;;;;15.60;3.95;;;;;;;31.88;43.91;99392.47;5050516;28;20183;-64
2022/06/19 07:14:45;;;;;;;7.15;3.33;;;;;;;32.03;44.65;99380.31;5050757;28;20085;-64
2022/06/19 07:17:10;;;;;;;10.23;3.92;;;;;;;32.16;43.45;99401.56;5050666;28;20021;-64
2022/06/19 07:19:36;;;;;;;9.35;3.28;;;;;;;32.35;43.26;99398.09;5050703;28;20407;-65
2022/06/19 07:22:01;;;;;;;9.63;3.95;;;;;;;32.49;43.96;99399.88;5050346;28;20033;-64
2022/06/19 07:24:27;;;;;;;14.27;4.18;;;;;;;32.65;42.92;99396.78;5049962;28;20036;-64
2022/06/19 07:26:53;;;;;;;7.18;3.70;;;;;;;32.64;41.70;99380.44;5054991;28;20356;-64
2022/06/19 07:29:18;;;;;;;11.63;4.63;;;;;;;32.73;42.30;99382.81;5069290;28;20059;-64
2022/06/19 07:31:44;;;;;;;8.50;3.70;;;;;;;33.00;41.40;99384.63;5069010;28;20048;-64
2022/06/19 07:34:09;;;;;;;10.20;4.95;;;;;;;33.17;41.52;99374.91;5060958;28;20082;-64
2022/06/19 07:36:35;;;;;;;11.38;4.18;;;;;;;33.47;42.18;99380.91;5031274;28;20060;-64
2022/06/19 07:39:01;;;;;;;11.05;4.03;;;;;;;33.74;41.46;99379.84;5031829;28;20373;-64
2022/06/19 07:41:26;;;;;;;9.18;4.50;;;;;;;33.96;40.39;99380.50;5034514;28;20056;-66
2022/06/19 07:43:51;;;;;;;9.27;4.93;;;;;;;34.33;40.18;99374.25;5034357;28;20021;-65
2022/06/19 07:46:18;;;;;;;8.43;4.28;;;;;;;34.75;39.77;99370.94;5034293;28;20021;-65
2022/06/19 07:51:30;;;;;;;11.02;4.38;;;;;;;35.31;39.18;99366.34;5034354;28;20436;-64
2022/06/19 07:53:56;;;;;;;9.48;4.13;;;;;;;35.53;38.11;99373.25;5039566;28;20029;-64
2022/06/19 07:56:21;;;;;;;9.77;4.32;;;;;;;35.60;38.26;99370.44;5054047;28;20491;-65
2022/06/19 07:58:47;;;;;;;9.68;4.72;;;;;;;35.88;38.18;99361.69;5053017;28;20035;-63
2022/06/19 08:01:12;;;;;;;9.77;4.40;;;;;;;35.73;37.39;99362.84;5052876;28;20186;-65
2022/06/19 08:03:38;;;;;;;7.13;3.88;;;;;;;35.95;36.70;99355.00;5052259;28;20134;-66
2022/06/19 08:06:03;;;;;;;7.55;4.68;;;;;;;35.84;36.46;99350.19;5052328;28;20025;-66
2022/06/19 08:08:32;;;;;;;12.27;4.63;;;;;;;36.23;36.57;99360.06;5052487;28;20029;-66
2022/06/19 08:10:59;;;;;;;9.07;4.43;;;;;;;36.45;35.86;99352.97;5052090;28;20096;-65
2022/06/19 08:13:28;;;;;;;9.13;4.47;;;;;;;36.27;35.28;99352.94;5052384;28;20488;-65
2022/06/19 08:15:57;;;;;;;10.95;4.53;;;;;;;36.30;36.90;99349.72;5052287;28;20037;-66
2022/06/19 08:18:24;;;;;;;8.00;3.97;;;;;;;36.39;35.35;99349.22;5052082;28;20484;-66
2022/06/19 08:20:49;;;;;;;10.95;4.63;;;;;;;36.44;36.06;99359.63;5051943;28;20060;-65
2022/06/19 08:23:15;;;;;;;9.95;4.65;;;;;;;36.64;34.82;99354.69;5052141;28;20021;-65
2022/06/19 08:25:41;;;;;;;9.23;4.28;;;;;;;36.90;35.32;99365.44;5032893;28;20049;-65
2022/06/19 08:28:07;;;;;;;11.00;5.57;;;;;;;36.96;34.50;99350.63;5067979;28;20063;-65
2022/06/19 08:30:40;;;;;;;7.00;3.92;;;;;;;37.14;34.17;99356.13;5071890;28;20101;-66
2022/06/19 08:33:07;;;;;;;7.32;3.75;;;;;;;37.44;33.90;99347.78;5063466;28;20452;-65
2022/06/19 08:35:38;;;;;;;7.55;4.13;;;;;;;37.36;32.86;99353.69;5050130;28;20025;-65
2022/06/19 08:38:08;;;;;;;10.77;4.63;;;;;;;37.22;33.78;99350.22;5032474;28;20034;-65
2022/06/19 08:40:51;;;;;;;10.88;4.75;;;;;;;37.20;33.10;99349.59;5031783;28;20037;-66
2022/06/19 08:43:16;;;;;;;10.75;3.75;;;;;;;37.52;33.46;99347.44;5031403;28;20045;-66
2022/06/19 08:46:12;;;;;;;7.72;4.28;;;;;;;37.84;33.15;99355.22;5031833;28;20029;-65
2022/06/19 08:48:57;;;;;;;8.68;4.65;;;;;;;38.11;33.13;99348.09;5031530;28;20051;-66
2022/06/19 08:51:34;;;;;;;10.43;4.30;;;;;;;38.13;32.41;99348.69;5034410;28;20024;-66
2022/06/19 08:54:25;;;;;;;6.68;3.75;;;;;;;38.12;32.22;99341.44;5038052;28;20048;-66
2022/06/19 08:56:59;;;;;;;12.98;4.35;;;;;;;38.22;30.81;99341.69;5052405;28;20515;-65
2022/06/19 08:59:37;;;;;;;7.32;4.28;;;;;;;38.27;31.09;99345.69;5051510;28;20484;-65
2022/06/19 09:02:20;;;;;;;11.95;3.95;;;;;;;38.50;31.71;99348.41;5050956;28;20574;-66
2022/06/19 09:08:17;;;;;;;8.95;3.75;;;;;;;38.77;30.18;99347.63;5051515;28;20598;-65
2022/06/19 09:11:06;;;;;;;6.88;3.20;;;;;;;38.70;29.83;99337.75;5051156;28;20028;-65
2022/06/19 09:13:47;;;;;;;6.93;3.65;;;;;;;38.76;31.05;99343.19;5052041;28;20409;-65
2022/06/19 09:16:23;;;;;;;9.30;3.90;;;;;;;39.01;30.13;99345.63;5052574;28;20029;-65
2022/06/19 09:19:12;;;;;;;5.82;3.67;;;;;;;39.00;30.49;99346.69;5052160;28;20110;-65
2022/06/19 09:22:15;;;;;;;7.60;3.47;;;;;;;39.23;30.32;99352.16;5052279;28;20047;-65
2022/06/19 09:24:54;;;;;;;10.65;3.70;;;;;;;39.48;30.58;99357.38;5052286;28;20107;-65
2022/06/19 09:27:29;;;;;;;8.63;3.60;;;;;;;38.99;29.94;99354.22;5062082;28;20567;-65
2022/06/19 09:30:02;;;;;;;10.07;3.80;;;;;;;38.85;29.67;99363.09;5070606;28;20094;-65
2022/06/19 09:32:53;;;;;;;6.60;3.22;;;;;;;38.91;30.50;99351.81;5070623;28;20020;-65
2022/06/19 09:35:47;;;;;;;7.65;3.83;;;;;;;39.04;30.24;99367.41;5070919;28;20025;-66
2022/06/19 09:38:24;;;;;;;7.28;3.10;;;;;;;39.34;29.98;99366.00;5070270;28;20049;-65
2022/06/19 09:40:57;;;;;;;7.18;3.42;;;;;;;39.42;29.32;99365.59;5032672;28;20503;-66
2022/06/19 09:43:35;;;;;;;11.57;3.35;;;;;;;39.38;29.58;99369.16;5030965;28;20492;-65
2022/06/19 09:46:24;;;;;;;7.05;3.65;;;;;;;39.57;29.42;99369.78;5032013;28;20115;-66
2022/06/19 09:49:14;;;;;;;8.63;3.88;;;;;;;39.56;28.05;99368.13;5031878;28;20221;-65
2022/06/19 09:51:49;;;;;;;14.00;3.85;;;;;;;39.53;30.45;99366.66;5029979;28;20095;-65
2022/06/19 09:54:19;;;;;;;8.05;3.58;;;;;;;39.70;30.24;99350.81;5037661;28;20021;-67
2022/06/19 09:56:55;;;;;;;7.18;3.80;;;;;;;39.83;30.54;99364.41;5050043;28;20079;-66
2022/06/19 09:59:53;;;;;;;7.68;4.72;;;;;;;39.86;30.09;99349.97;5049962;28;20071;-66
2022/06/19 10:02:18;;;;;;;9.50;4.05;;;;;;;40.22;29.77;99343.84;5049249;28;20412;-66
2022/06/19 10:04:54;;;;;;;5.38;3.20;;;;;;;40.03;29.69;99334.09;5050516;28;20028;-66
2022/06/19 10:07:35;;;;;;;7.18;3.55;;;;;;;40.44;29.37;99341.97;5051465;28;20044;-66
2022/06/19 10:10:31;;;;;;;9.23;3.38;;;;;;;40.61;28.49;99339.13;5051292;28;20033;-66
2022/06/19 10:12:59;;;;;;;8.38;3.70;;;;;;;40.47;28.44;99340.59;5049529;28;20053;-66
2022/06/19 10:15:34;;;;;;;7.35;3.30;;;;;;;40.17;28.08;99329.84;5049789;28;20039;-66
2022/06/19 10:18:19;;;;;;;6.85;3.22;;;;;;;40.24;27.70;99318.50;5048345;28;20033;-66
2022/06/19 10:20:48;;;;;;;7.10;2.90;;;;;;;40.32;28.39;99334.81;5028792;28;20029;-66
2022/06/19 10:23:26;;;;;;;7.75;3.05;;;;;;;40.42;29.18;99338.59;5030300;28;20033;-66
2022/06/19 10:26:11;;;;;;;8.15;3.10;;;;;;;40.47;28.68;99330.28;5048356;28;20095;-66
2022/06/19 10:28:47;;;;;;;5.70;2.90;;;;;;;40.72;26.67;99324.22;5029683;28;20034;-67
2022/06/19 10:31:33;;;;;;;6.20;2.80;;;;;;;40.85;28.59;99325.75;5029955;28;20029;-66
2022/06/19 10:34:27;;;;;;;5.10;2.70;;;;;;;41.17;26.90;99323.91;5033739;28;20029;-66
2022/06/19 10:36:58;;;;;;;7.90;3.20;;;;;;;41.37;26.76;99324.91;5038752;28;20514;-66
2022/06/19 10:39:37;;;;;;;7.10;2.80;;;;;;;41.25;26.91;99332.63;5050984;28;20086;-66
2022/06/19 10:42:19;;;;;;;6.75;2.55;;;;;;;40.99;27.29;99343.78;5050777;28;20035;-67
2022/06/19 10:44:47;;;;;;;8.32;2.85;;;;;;;41.13;27.68;99331.09;5051093;28;20051;-67
2022/06/19 10:47:25;;;;;;;8.38;2.95;;;;;;;41.01;27.41;99330.41;5051295;28;20111;-67
2022/06/19 10:49:56;;;;;;;6.65;2.90;;;;;;;41.07;26.73;99326.53;5050882;28;20056;-67
2022/06/19 10:52:54;;;;;;;8.38;2.50;;;;;;;41.11;25.91;99322.09;5050722;28;20412;-67
2022/06/19 10:55:38;;;;;;;5.80;3.15;;;;;;;40.72;28.92;99320.56;5036445;28;20118;-67
2022/06/19 10:58:16;;;;;;;7.97;2.97;;;;;;;40.91;28.47;99319.94;5030976;28;20036;-67
2022/06/19 11:00:43;;;;;;;5.38;2.85;;;;;;;40.75;29.35;99308.88;5029423;28;20061;-67
2022/06/19 11:06:19;;;;;;;8.13;3.50;;;;;;;41.34;26.02;99321.81;5031033;28;20519;-67
2022/06/19 11:08:53;;;;;;;8.85;3.00;;;;;;;41.09;27.10;99313.19;5031099;28;20072;-67
2022/06/19 11:11:20;;;;;;;10.70;3.10;;;;;;;41.37;26.22;99313.75;5030284;28;20053;-66
2022/06/19 11:14:35;;;;;;;11.52;3.05;;;;;;;41.20;27.04;99317.78;5032702;28;20025;-66
2022/06/19 11:17:12;;;;;;;7.75;3.33;;;;;;;41.37;27.04;99307.34;5042057;28;20056;-66
2022/06/19 11:19:46;;;;;;;7.85;3.22;;;;;;;41.34;26.70;99305.06;5034497;28;20139;-65
2022/06/19 11:22:39;;;;;;;5.40;3.03;;;;;;;41.35;26.92;99303.97;5034878;28;20059;-66
2022/06/19 11:25:20;;;;;;;5.88;2.80;;;;;;;41.52;27.59;99301.84;5032765;28;20690;-66
2022/06/19 11:28:12;;;;;;;11.57;2.97;;;;;;;41.42;28.36;99294.25;5059712;28;20434;-66
2022/06/19 11:30:54;;;;;;;7.13;3.08;;;;;;;41.31;25.54;99297.22;5072616;28;20028;-66
2022/06/19 11:33:32;;;;;;;8.05;2.67;;;;;;;41.18;25.48;99290.13;5067720;28;20463;-66
2022/06/19 11:36:02;;;;;;;7.88;3.10;;;;;;;41.36;26.35;99294.47;5032385;28;20036;-65
2022/06/19 11:38:33;;;;;;;7.43;3.17;;;;;;;41.63;26.39;99284.13;5032399;28;20036;-66
2022/06/19 11:40:59;;;;;;;9.30;3.15;;;;;;;42.21;27.27;99292.31;5035606;28;20029;-66
2022/06/19 11:43:31;;;;;;;7.47;3.25;;;;;;;41.91;25.84;99286.53;5034353;28;20556;-66
2022/06/19 11:46:02;;;;;;;7.78;2.75;;;;;;;41.81;27.03;99283.69;5034353;28;20410;-66
2022/06/19 11:48:28;;;;;;;7.60;3.10;;;;;;;41.72;27.02;99288.94;5034486;28;20104;-66
2022/06/19 11:50:55;;;;;;;6.50;2.70;;;;;;;41.88;25.21;99281.47;5034032;28;20108;-66
2022/06/19 11:53:24;;;;;;;7.93;3.38;;;;;;;41.95;24.50;99281.28;5034563;28;20033;-66
2022/06/19 11:56:32;;;;;;;8.57;2.78;;;;;;;42.23;28.29;99273.31;5054108;28;20045;-66
2022/06/19 11:59:02;;;;;;;8.82;2.97;;;;;;;42.50;25.76;99279.63;5053938;28;20502;-66